Timmins/Victor M. Power
CYTS : now visible

Airfield :











YOU CAN JOIN US ON...

 
LOGIN :

Register | Disclaimer

   EN    FR    IT 

 









Legend :    VFR   Marginal VFR   IFR   Intensive IFR   Very Intensive IFR
Visi :
Ceiling :
>= 8 km
>= 3000ft
5 to 8 km
1000 to 3000 ft
1500m to 5 km
500 to 1000 ft
800 to 1500m
200 to 500 ft
< 800m
< 200 ft
Symbols :   Thunderstorms  Fog  Heavy snow  Heavy precipitations  Wind > 20 kt






- Airport Elevation : 967 ft
- IATA code : YTS


CYTS - Timmins/Victor M. Power

CURRENT METAR :
  • 210400Z 26004KT 2 1/2SM -SN BKN040 OVC060 M09/M11 A3004 RMK SC6SC2 SLP199

EXPIRED METARs :
  • 210300Z 28005KT 2 1/2SM -SN FEW020 BKN040 OVC060 M10/M12 A3005 RMK SC2SC4SC2 SLP201
  • 210200Z 28004KT 250V320 2 1/2SM -SN BKN040 OVC100 M10/M12 A3005 RMK SC5AC3 SLP201

TAF TAF CYTS
Valid from the 21 at 02:00 until the 21 at 14:00 UTC


210138Z 2102/2114 30006KT 6SM -SN BKN020 OVC030
TEMPO 2102/2105 21/2SM -SN OVC010
FM210500 31006KT P6SM BKN020 OVC060
TEMPO 2105/2114 SCT020 OVC060 RMK NXT FCST BY 210800Z
CZYZ FIR / North America



MET'MAP, your aeronautical weather chart ! - Copyright ORBIFLY December 2007 - Disclaimer

ORBIFLY MET'MAP TEAM :

Programming & Development : Alexandra Zaïnal
Concept & original design : Baudouin d'Aumeries
Assistance for programming : Marc-Olivier Méhu
Technical & hardware support : Manuel Goepfert

Contact : metmap@orbifly.com




SOURCES & CREDITS :

   NOAA       Earth
Advisory